Amenia, New York
Current Conditions -  °F | °C
As of 11:53 PM on Friday 28 Nov 2014 (Local Time) from KPOU Reporting Station
Clear Clear  
Wind Chill: 16°   Ceiling: Unl
Heat Index: 16°   Visibility: 10mi
Dew Point: 11°   Wind: 0mph
Humidity: 81%   Direction: NA
Pressure: 30.26"   Gusts: NA
Location:  41.85°N, 73.55°W
Report Text: KPOU 290453Z AUTO 00000KT 10SM CLR M09/M12 A3026 RMK AO2 SLP245 I1000 T10891117 400221106 TSNO
Loading
Personal Weather Stations






























Interactive Weather Map New forecast layout! Learn more

10-Day Weather Forecast

Advertisements
Track Severe Weather on mobile